Terminal Aerodrome Forecast
Issued by NWS Cleveland, OH

Home | Current Version | Previous Version | Text Only | Print | Product List | Glossary On
Versions: 1 2 3 4 5 6 7 8 9 10 11 12 13 14 15 16 17 18
000
FTUS41 KCLE 011100
TAFTOL
TAF
KTOL 011138Z 0112/0212 01003KT P6SM SCT015
      TEMPO 0112/0114 3SM BR BKN015
     FM011400 03005KT P6SM BKN015
     FM011600 05005KT P6SM BKN020
     FM011800 07005KT P6SM BKN035
     FM012200 09003KT P6SM SKC
     FM020400 09003KT 3SM BR SCT003
     FM020800 09003KT 2SM BR BKN003=

USA.gov is the U.S. government's official web portal to all federal, state and local government web resources and services.